TOURFACTS.DK  
Stats and Facts from Tour de France.

Tour de France 2018 starts in 254 days
  Riders   Stages   Teams   Summits   Yearly  


 
Search by year

 2017 - St. 21:  14824 starters.
  5131 different riders.
  634 teams.
  2232 stages.
  454 restdays.
  439589.60 km.
  5653 abandonnees.


Top 3
Christopher Froome86:20:55
Rigoberto Uran86:21:49
Romain Bardet86:23:15
Warren Barguil169 pt.
Primoz Roglic80 pt.
Thomas De Gendt64 pt.
Michael Matthews359 pt.
André Greipel234 pt.
Edvald Boasson Hagen220 pt.
Simon Yates86:27:09
Louis Meintjes86:29:15
Emanuel Buchmann86:54:16
Facts from Tour de France 1938
  |   Stages.  |   Stage winners.  |   Days in yellow  |   Average speed.  |   Route.  |   Teams.  |   All riders.  |   Rookies.  |   Withdrawls.  |  

  |   GC.  |   Polka  |   Green  |   White  |   Summits. (In tour)  |   Summits. (Points)  |   Miscellaneous.  |  

Stage 12 on 18 - 07 - 1938
         Owning:    Félicien Vervaecke    
Pick a stage:  1 2 3 4a 4b 4c 5 6a 6b 7 8 9 10a 10b 10c 11 12 13 14 15 16 17a 17b 18 19 20a 20b 20c 21
  MarseilleCannes | Dist: 199.00 km.

Average speed for all riders in stage:  29,788 km./hr.
    Place:Name:Team:Time:Km/h:
FRAJean FréchautFRAFrance06:35:26  +  00:00:00=30,195 
FRAYvan MarieFRACadets06:35:26  +  00:00:00=30,195 
FRAAndré LeducqFRACadets06:35:26  +  00:00:00=30,195 
4 ITAMario ViciniITAItaly06:35:26  +  00:00:00=30,195 
5 FRARobert TanneveauFRACadets06:35:26  +  00:00:00=30,195 
6 FRAJean FontenayFRACadets06:35:26  +  00:00:00=30,195 
7 ESPMariano CañardoESPSpain06:35:26  +  00:00:00=30,195 
8 FRAMathias ClemensLUXLuxembourg06:35:26  +  00:00:00=30,195 
9 ITADante GianelloFRABluets06:35:26  +  00:00:00=30,195 
10 FRAVictor CossonFRAFrance06:35:26  +  00:00:00=30,195 
11 FRAAlbert BourlonFRABluets06:35:26  +  00:00:00=30,195 
12 FRAAuguste MalletFRAFrance06:35:26  +  00:00:00=30,195 
13 ITAOreste BernardoniFRABluets06:38:48  +  00:03:22=29,940 
14 FRAPierre ClemensLUXLuxembourg06:38:48  +  00:03:22=29,940 
15 NEDTheo MiddelkampNLDHolland06:38:48  +  00:03:22=29,940 
16 ESPRafael RamosESPSpain06:38:48  +  00:03:22=29,940 
17 ESPJulián BerrenderoESPSpain06:38:48  +  00:03:22=29,940 
18 FRAGeorges NaisseFRAFrance06:38:48  +  00:03:22=29,940 
19 SUIPaul EgliCHESwitzerland06:39:41  +  00:04:15=29,874 
20 NEDAntoon Van SchendelNLDHolland06:39:41  +  00:04:15=29,874 
21 ESPJacques AlzineESPSpain06:39:41  +  00:04:15=29,874 
22 FRARaoul LesueurFRACadets06:40:06  +  00:04:40=29,843 
23 BELFrançois NeuvilleBELBelgium06:40:06  +  00:04:40=29,843 
24 FRAPierre GallienFRAFrance06:40:06  +  00:04:40=29,843 
25 SUIRaymond LouviotFRACadets06:40:06  +  00:04:40=29,843 
26 ITAGino BartaliITAItaly06:40:06  +  00:04:40=29,843 
27 BELFélicien VervaeckeBELBelgium06:40:06  +  00:04:40=29,843 
28 ITAGiuseppe MartanoITAItaly06:40:06  +  00:04:40=29,843 
29 BELSylvère MaesBELBelgium06:40:06  +  00:04:40=29,843 
30 BELAlbertin DisseauxBELBelgium06:40:06  +  00:04:40=29,843 
31 BELConstant LauwersBELBelgium06:40:06  +  00:04:40=29,843 
32 BELJules LowieBELBelgium06:40:06  +  00:04:40=29,843 
33 FRAAntonin MagneFRAFrance06:40:06  +  00:04:40=29,843 
34 ITAVasco BergamaschiITAItaly06:40:06  +  00:04:40=29,843 
35 BELEdward VissersBELBelgium06:40:06  +  00:04:40=29,843 
36 SUIBruno CariniFRACadets06:40:06  +  00:04:40=29,843 
37 BELMarcel KintBELBelgium06:40:06  +  00:04:40=29,843 
38 FRAJean-Marie GoasmatFRAFrance06:40:06  +  00:04:40=29,843 
39 FRARaymond PassatFRACadets06:40:06  +  00:04:40=29,843 
40 FRAGaston GrimbertFRABluets06:40:06  +  00:04:40=29,843 
41 ITAGlauco ServadeiITAItaly06:40:06  +  00:04:40=29,843 
42 ITAGiordano CotturITAItaly06:40:06  +  00:04:40=29,843 
43 BELRene WalschotBELBelgium06:40:06  +  00:04:40=29,843 
44 BELEmile Masson jr.BELBelgium06:40:06  +  00:04:40=29,843 
45 FRAFabien GalateauFRACadets06:40:06  +  00:04:40=29,843 
46 FRARobert OubronFRACadets06:40:06  +  00:04:40=29,843 
47 LUXArsène MerschLUXLuxembourg06:40:35  +  00:05:09=29,807 
48 FRAPierre JaminetFRAFrance06:40:35  +  00:05:09=29,807 
49 GEROtto WeckerlingDEUGermany06:40:35  +  00:05:09=29,807 
50 LUXJean MajerusLUXLuxembourg06:40:35  +  00:05:09=29,807 
51 FRALucien Le GuevelFRABluets06:40:35  +  00:05:09=29,807 
52 ITAPierre SpaperiFRABluets06:40:35  +  00:05:09=29,807 
53 FRAMarcel LaurentFRAFrance06:40:48  +  00:05:22=29,790 
54 FRAJoseph GoutorbeFRABluets06:42:23  +  00:06:57=29,673 
55 GERHerbert HauswaldDEUGermany06:42:36  +  00:07:10=29,657 
56 GERJosef ArentsDEUGermany06:42:36  +  00:07:10=29,657 
57 NEDJanus HellemonsNLDHolland06:42:36  +  00:07:10=29,657 
58 LUXFrançois NeuensLUXLuxembourg06:43:12  +  00:07:46=29,613 
59 SUIAlbert KnuttiCHESwitzerland06:43:12  +  00:07:46=29,613 
60 FRAJules RossiITAItaly06:46:15  +  00:10:49=29,391 
61 ITALuigi IntrozziITAItaly06:46:15  +  00:10:49=29,391 
62 SUIEdgar HehlenCHESwitzerland06:46:15  +  00:10:49=29,391 
63 FRACamille LeroyFRABluets06:47:40  +  00:12:14=29,289 
64 ITAAldo BiniITAItaly06:47:40  +  00:12:14=29,289 
65 ITAEnrico MolloITAItaly06:51:26  +  00:16:00=29,020 
66 GERReinhold WendelDEUGermany07:05:00  +  00:29:34=28,094 
67 ITANello TroggiITAItaly07:05:00  +  00:29:34=28,094 

Withdrawls: 2
 
Rider
Team
Reason
5  BELÉloi MeulenbergBELBelgiumDid not finish
35  GERKarl HeideDEUGermanyDisqualified

Todays birthdays.

1886  Jean Meziere
1887  Pierre Herbette
1887  Octave Lapize
1898  Felix Manthey
1920  René Biever
1920  Georges Ramoulux
1928  René Marigil
1940  Jean-Pierre Genet
1944  Giannino Bianco
1945  Eddy Cael
1950  Bert Pronk
1954  Marc Dierickx
1961  Chris Carmichael
1973  Levi Leipheimer